Marrum, Netherlands
Current Conditions -  °F | °C
As of 9:55 AM on Saturday 29 Nov 2014 (Local Time) from EHLW Reporting Station
Haze Haze  
Wind Chill: 26°   Ceiling: 1100
Heat Index: 34°   Visibility: 2.8mi
Dew Point: 32°   Wind: 9mph
Humidity: 93%   Direction: 110°ESE
Pressure: 30.03"   Gusts: NA
Location:  53.32°N, 5.8°E
Report Text: EHLW 290855Z AUTO 11008KT 4600 BR SCT009 BKN011 01/M00 Q1017 GRN
Loading
Personal Weather Stations






























Interactive Weather Map New forecast layout! Learn more

10-Day Weather Forecast

Advertisements
Track Severe Weather on mobile